Courtland, Kansas
Current Conditions -  °F | °C
As of 11:41 PM on Sunday 21 Dec 2014 (Local Time) from KCNK Reporting Station
Haze Haze  
Wind Chill: 37°   Ceiling: 400
Heat Index: 43°   Visibility: 4mi
Dew Point: 43°   Wind: 12mph
Humidity: 100%   Direction: 170°S
Pressure: 29.6"   Gusts: NA
Location:  39.78°N, 97.89°W
Report Text: KCNK 220541Z AUTO 17010KT 4SM BR OVC004 06/06 A2960 RMK AO2 RAB04E14 P0000 T00610061
Loading
Personal Weather Stations






























Interactive Weather Map New forecast layout! Learn more

10-Day Weather Forecast

Advertisements
Track Severe Weather on mobile